Fruitvale, Washington
Current Conditions -  °F | °C
As of 11:53 PM on Saturday 25 Oct 2014 (Local Time) from KYKM Reporting Station
Clear Clear  
Wind Chill: 52°   Ceiling: Unl
Heat Index: 52°   Visibility: 10mi
Dew Point: 36°   Wind: 16mph
Humidity: 54%   Direction: 230°SW
Pressure: 29.71"   Gusts: 25mph
Location:  46.5979°N, 120.534°W
Report Text: KYKM 260653Z AUTO 23014G22KT 10SM CLR 11/02 A2971 RMK AO2 SLP061 T01110022
Loading
Personal Weather Stations






























Interactive Weather Map
Tropical Storm Tracking
New forecast layout! Learn more

10-Day Weather Forecast

Advertisements
Track Severe Weather on mobile